sensor_id;sensor_type;location;lat;lon;timestamp;P1;durP1;ratioP1;P2;durP2;ratioP2
37945;SDS011;23769;52.478;13.448;2023-02-28T00:01:04;5.72;;;3.13;;
37945;SDS011;23769;52.478;13.448;2023-02-28T00:03:32;5.40;;;2.95;;
37945;SDS011;23769;52.478;13.448;2023-02-28T00:06:00;4.93;;;2.40;;
37945;SDS011;23769;52.478;13.448;2023-02-28T00:08:27;7.50;;;3.13;;
37945;SDS011;23769;52.478;13.448;2023-02-28T00:10:56;8.10;;;3.58;;
37945;SDS011;23769;52.478;13.448;2023-02-28T00:13:23;9.15;;;4.18;;
37945;SDS011;23769;52.478;13.448;2023-02-28T00:15:58;5.00;;;2.80;;
37945;SDS011;23769;52.478;13.448;2023-02-28T00:18:25;6.07;;;3.22;;
37945;SDS011;23769;52.478;13.448;2023-02-28T00:20:52;11.82;;;3.25;;
37945;SDS011;23769;52.478;13.448;2023-02-28T00:23:19;8.55;;;3.38;;
37945;SDS011;23769;52.478;13.448;2023-02-28T00:25:47;6.30;;;3.55;;
37945;SDS011;23769;52.478;13.448;2023-02-28T00:28:15;8.55;;;3.40;;
37945;SDS011;23769;52.478;13.448;2023-02-28T00:30:42;8.60;;;3.38;;
37945;SDS011;23769;52.478;13.448;2023-02-28T00:33:10;8.10;;;3.47;;
37945;SDS011;23769;52.478;13.448;2023-02-28T00:35:37;9.95;;;3.47;;
37945;SDS011;23769;52.478;13.448;2023-02-28T00:38:04;10.18;;;3.70;;
37945;SDS011;23769;52.478;13.448;2023-02-28T00:40:31;9.48;;;3.55;;
37945;SDS011;23769;52.478;13.448;2023-02-28T00:42:59;10.70;;;4.25;;
37945;SDS011;23769;52.478;13.448;2023-02-28T00:45:27;10.38;;;3.65;;
37945;SDS011;23769;52.478;13.448;2023-02-28T00:47:54;10.07;;;3.90;;
37945;SDS011;23769;52.478;13.448;2023-02-28T00:50:22;10.13;;;4.07;;
37945;SDS011;23769;52.478;13.448;2023-02-28T00:52:49;9.50;;;4.18;;
37945;SDS011;23769;52.478;13.448;2023-02-28T00:55:16;8.20;;;3.22;;
37945;SDS011;23769;52.478;13.448;2023-02-28T00:57:43;11.65;;;4.15;;
37945;SDS011;23769;52.478;13.448;2023-02-28T01:00:11;10.32;;;4.00;;
37945;SDS011;23769;52.478;13.448;2023-02-28T01:02:39;9.05;;;4.30;;
37945;SDS011;23769;52.478;13.448;2023-02-28T01:05:07;13.45;;;4.15;;
37945;SDS011;23769;52.478;13.448;2023-02-28T01:07:34;11.20;;;3.92;;
37945;SDS011;23769;52.478;13.448;2023-02-28T01:10:01;12.07;;;4.40;;
37945;SDS011;23769;52.478;13.448;2023-02-28T01:12:29;12.23;;;4.63;;
37945;SDS011;23769;52.478;13.448;2023-02-28T01:14:56;13.98;;;4.40;;
37945;SDS011;23769;52.478;13.448;2023-02-28T01:17:23;11.77;;;3.90;;
37945;SDS011;23769;52.478;13.448;2023-02-28T01:19:54;12.93;;;4.85;;
37945;SDS011;23769;52.478;13.448;2023-02-28T01:22:21;9.40;;;4.00;;
37945;SDS011;23769;52.478;13.448;2023-02-28T01:24:48;9.52;;;3.95;;
37945;SDS011;23769;52.478;13.448;2023-02-28T01:27:15;19.77;;;7.50;;
37945;SDS011;23769;52.478;13.448;2023-02-28T01:29:42;18.48;;;5.53;;
37945;SDS011;23769;52.478;13.448;2023-02-28T01:32:10;14.80;;;5.63;;
37945;SDS011;23769;52.478;13.448;2023-02-28T01:34:37;12.80;;;4.65;;
37945;SDS011;23769;52.478;13.448;2023-02-28T01:37:05;12.80;;;3.95;;
37945;SDS011;23769;52.478;13.448;2023-02-28T01:39:33;9.00;;;4.20;;
37945;SDS011;23769;52.478;13.448;2023-02-28T01:42:00;8.18;;;4.00;;
37945;SDS011;23769;52.478;13.448;2023-02-28T01:47:12;9.98;;;4.30;;
37945;SDS011;23769;52.478;13.448;2023-02-28T01:49:40;9.13;;;4.22;;
37945;SDS011;23769;52.478;13.448;2023-02-28T01:52:09;10.48;;;4.35;;
37945;SDS011;23769;52.478;13.448;2023-02-28T01:54:43;13.98;;;4.80;;
37945;SDS011;23769;52.478;13.448;2023-02-28T01:57:13;17.48;;;5.50;;
37945;SDS011;23769;52.478;13.448;2023-02-28T01:59:42;16.38;;;6.00;;
37945;SDS011;23769;52.478;13.448;2023-02-28T02:02:11;12.82;;;4.93;;
37945;SDS011;23769;52.478;13.448;2023-02-28T02:04:39;7.72;;;4.35;;
37945;SDS011;23769;52.478;13.448;2023-02-28T02:07:07;11.85;;;4.20;;
37945;SDS011;23769;52.478;13.448;2023-02-28T02:09:36;11.48;;;4.20;;
37945;SDS011;23769;52.478;13.448;2023-02-28T02:12:05;9.70;;;4.18;;
37945;SDS011;23769;52.478;13.448;2023-02-28T02:14:39;10.77;;;4.35;;
37945;SDS011;23769;52.478;13.448;2023-02-28T02:17:10;13.90;;;4.47;;
37945;SDS011;23769;52.478;13.448;2023-02-28T02:19:46;11.60;;;4.15;;
37945;SDS011;23769;52.478;13.448;2023-02-28T02:22:21;9.18;;;4.45;;
37945;SDS011;23769;52.478;13.448;2023-02-28T02:25:08;11.45;;;4.53;;
37945;SDS011;23769;52.478;13.448;2023-02-28T02:27:40;11.98;;;3.90;;
37945;SDS011;23769;52.478;13.448;2023-02-28T02:33:18;14.32;;;4.38;;
37945;SDS011;23769;52.478;13.448;2023-02-28T02:35:53;10.30;;;4.93;;
37945;SDS011;23769;52.478;13.448;2023-02-28T02:38:24;10.10;;;4.75;;
37945;SDS011;23769;52.478;13.448;2023-02-28T02:40:58;13.75;;;4.80;;
37945;SDS011;23769;52.478;13.448;2023-02-28T02:43:30;8.70;;;4.90;;
37945;SDS011;23769;52.478;13.448;2023-02-28T02:46:01;11.75;;;5.05;;
37945;SDS011;23769;52.478;13.448;2023-02-28T02:48:34;11.35;;;5.15;;
37945;SDS011;23769;52.478;13.448;2023-02-28T02:51:05;17.55;;;5.78;;
37945;SDS011;23769;52.478;13.448;2023-02-28T02:53:37;18.50;;;4.90;;
37945;SDS011;23769;52.478;13.448;2023-02-28T02:56:07;15.55;;;5.50;;
37945;SDS011;23769;52.478;13.448;2023-02-28T02:58:35;13.27;;;4.88;;
37945;SDS011;23769;52.478;13.448;2023-02-28T03:01:07;19.08;;;5.50;;
37945;SDS011;23769;52.478;13.448;2023-02-28T03:03:34;13.05;;;5.38;;
37945;SDS011;23769;52.478;13.448;2023-02-28T03:06:02;15.82;;;5.80;;
37945;SDS011;23769;52.478;13.448;2023-02-28T03:08:34;10.90;;;5.20;;
37945;SDS011;23769;52.478;13.448;2023-02-28T03:11:02;10.57;;;4.72;;
37945;SDS011;23769;52.478;13.448;2023-02-28T03:19:20;20.85;;;5.90;;
37945;SDS011;23769;52.478;13.448;2023-02-28T03:21:53;12.15;;;4.70;;
37945;SDS011;23769;52.478;13.448;2023-02-28T03:26:53;9.90;;;5.22;;
37945;SDS011;23769;52.478;13.448;2023-02-28T03:29:26;10.30;;;4.07;;
37945;SDS011;23769;52.478;13.448;2023-02-28T03:31:57;12.02;;;5.00;;
37945;SDS011;23769;52.478;13.448;2023-02-28T03:34:26;11.52;;;4.85;;
37945;SDS011;23769;52.478;13.448;2023-02-28T03:36:57;11.57;;;5.00;;
37945;SDS011;23769;52.478;13.448;2023-02-28T03:39:26;14.20;;;5.35;;
37945;SDS011;23769;52.478;13.448;2023-02-28T03:41:58;10.07;;;4.90;;
37945;SDS011;23769;52.478;13.448;2023-02-28T03:44:29;17.60;;;6.00;;
37945;SDS011;23769;52.478;13.448;2023-02-28T03:47:00;15.38;;;5.40;;
37945;SDS011;23769;52.478;13.448;2023-02-28T03:49:30;16.52;;;5.38;;
37945;SDS011;23769;52.478;13.448;2023-02-28T03:51:59;17.17;;;5.47;;
37945;SDS011;23769;52.478;13.448;2023-02-28T03:54:29;11.38;;;5.40;;
37945;SDS011;23769;52.478;13.448;2023-02-28T03:56:59;12.45;;;5.00;;
37945;SDS011;23769;52.478;13.448;2023-02-28T03:59:27;12.63;;;5.88;;
37945;SDS011;23769;52.478;13.448;2023-02-28T04:01:56;10.13;;;5.25;;
37945;SDS011;23769;52.478;13.448;2023-02-28T04:04:24;16.70;;;5.38;;
37945;SDS011;23769;52.478;13.448;2023-02-28T04:06:52;13.15;;;5.20;;
37945;SDS011;23769;52.478;13.448;2023-02-28T04:09:20;11.52;;;5.30;;
37945;SDS011;23769;52.478;13.448;2023-02-28T04:11:48;16.33;;;6.68;;
37945;SDS011;23769;52.478;13.448;2023-02-28T04:14:20;11.75;;;5.38;;
37945;SDS011;23769;52.478;13.448;2023-02-28T04:16:50;11.90;;;5.25;;
37945;SDS011;23769;52.478;13.448;2023-02-28T04:19:18;11.32;;;5.18;;
37945;SDS011;23769;52.478;13.448;2023-02-28T04:21:46;12.60;;;5.53;;
37945;SDS011;23769;52.478;13.448;2023-02-28T04:24:15;12.77;;;5.57;;
37945;SDS011;23769;52.478;13.448;2023-02-28T04:26:43;9.32;;;5.25;;
37945;SDS011;23769;52.478;13.448;2023-02-28T04:29:11;12.98;;;5.05;;
37945;SDS011;23769;52.478;13.448;2023-02-28T04:31:40;12.23;;;6.20;;
37945;SDS011;23769;52.478;13.448;2023-02-28T04:34:07;13.10;;;5.72;;
37945;SDS011;23769;52.478;13.448;2023-02-28T04:36:34;13.40;;;5.95;;
37945;SDS011;23769;52.478;13.448;2023-02-28T04:39:02;12.63;;;5.60;;
37945;SDS011;23769;52.478;13.448;2023-02-28T04:41:30;13.27;;;5.75;;
37945;SDS011;23769;52.478;13.448;2023-02-28T04:43:57;18.90;;;6.07;;
37945;SDS011;23769;52.478;13.448;2023-02-28T04:46:24;15.77;;;6.03;;
37945;SDS011;23769;52.478;13.448;2023-02-28T04:48:53;13.77;;;5.22;;
37945;SDS011;23769;52.478;13.448;2023-02-28T04:51:20;14.05;;;6.30;;
37945;SDS011;23769;52.478;13.448;2023-02-28T04:53:48;10.35;;;5.30;;
37945;SDS011;23769;52.478;13.448;2023-02-28T04:56:16;16.85;;;6.65;;
37945;SDS011;23769;52.478;13.448;2023-02-28T04:58:43;20.35;;;6.35;;
37945;SDS011;23769;52.478;13.448;2023-02-28T05:01:16;18.25;;;6.43;;
37945;SDS011;23769;52.478;13.448;2023-02-28T05:06:12;11.05;;;5.63;;
37945;SDS011;23769;52.478;13.448;2023-02-28T05:08:40;13.38;;;5.80;;
37945;SDS011;23769;52.478;13.448;2023-02-28T05:11:15;12.38;;;6.03;;
37945;SDS011;23769;52.478;13.448;2023-02-28T05:13:43;13.63;;;6.13;;
37945;SDS011;23769;52.478;13.448;2023-02-28T05:16:10;15.13;;;6.15;;
37945;SDS011;23769;52.478;13.448;2023-02-28T05:18:38;13.43;;;6.70;;
37945;SDS011;23769;52.478;13.448;2023-02-28T05:21:05;18.92;;;6.40;;
37945;SDS011;23769;52.478;13.448;2023-02-28T05:23:34;25.70;;;7.22;;
37945;SDS011;23769;52.478;13.448;2023-02-28T05:26:01;16.60;;;6.85;;
37945;SDS011;23769;52.478;13.448;2023-02-28T05:28:28;17.38;;;6.80;;
37945;SDS011;23769;52.478;13.448;2023-02-28T05:30:56;12.65;;;6.57;;
37945;SDS011;23769;52.478;13.448;2023-02-28T05:33:23;12.60;;;7.38;;
37945;SDS011;23769;52.478;13.448;2023-02-28T05:35:50;14.85;;;6.32;;
37945;SDS011;23769;52.478;13.448;2023-02-28T05:38:17;14.75;;;6.20;;
37945;SDS011;23769;52.478;13.448;2023-02-28T05:40:46;15.85;;;7.28;;
37945;SDS011;23769;52.478;13.448;2023-02-28T05:43:13;13.15;;;5.90;;
37945;SDS011;23769;52.478;13.448;2023-02-28T05:45:40;12.70;;;5.60;;
37945;SDS011;23769;52.478;13.448;2023-02-28T05:48:07;15.18;;;7.00;;
37945;SDS011;23769;52.478;13.448;2023-02-28T05:50:35;22.73;;;7.57;;
37945;SDS011;23769;52.478;13.448;2023-02-28T05:53:02;19.80;;;8.10;;
37945;SDS011;23769;52.478;13.448;2023-02-28T05:55:29;13.60;;;6.72;;
37945;SDS011;23769;52.478;13.448;2023-02-28T05:57:58;16.50;;;7.63;;
37945;SDS011;23769;52.478;13.448;2023-02-28T06:00:25;16.60;;;7.00;;
37945;SDS011;23769;52.478;13.448;2023-02-28T06:02:52;14.85;;;6.32;;
37945;SDS011;23769;52.478;13.448;2023-02-28T06:05:26;15.18;;;6.57;;
37945;SDS011;23769;52.478;13.448;2023-02-28T06:07:54;16.38;;;7.03;;
37945;SDS011;23769;52.478;13.448;2023-02-28T06:10:21;13.70;;;7.03;;
37945;SDS011;23769;52.478;13.448;2023-02-28T06:12:48;13.95;;;7.35;;
37945;SDS011;23769;52.478;13.448;2023-02-28T06:15:17;15.30;;;6.90;;
37945;SDS011;23769;52.478;13.448;2023-02-28T06:17:45;13.00;;;7.40;;
37945;SDS011;23769;52.478;13.448;2023-02-28T06:20:13;15.70;;;7.63;;
37945;SDS011;23769;52.478;13.448;2023-02-28T06:22:40;15.25;;;8.13;;
37945;SDS011;23769;52.478;13.448;2023-02-28T06:25:09;16.58;;;8.57;;
37945;SDS011;23769;52.478;13.448;2023-02-28T06:27:36;12.63;;;6.78;;
37945;SDS011;23769;52.478;13.448;2023-02-28T06:30:04;14.32;;;6.45;;
37945;SDS011;23769;52.478;13.448;2023-02-28T06:32:32;14.73;;;6.35;;
37945;SDS011;23769;52.478;13.448;2023-02-28T06:35:03;15.38;;;6.95;;
37945;SDS011;23769;52.478;13.448;2023-02-28T06:37:30;13.02;;;6.18;;
37945;SDS011;23769;52.478;13.448;2023-02-28T06:39:57;17.10;;;6.60;;
37945;SDS011;23769;52.478;13.448;2023-02-28T06:42:25;16.50;;;7.63;;
37945;SDS011;23769;52.478;13.448;2023-02-28T06:44:53;19.88;;;7.28;;
37945;SDS011;23769;52.478;13.448;2023-02-28T06:47:21;14.38;;;7.63;;
37945;SDS011;23769;52.478;13.448;2023-02-28T06:49:52;16.90;;;8.05;;
37945;SDS011;23769;52.478;13.448;2023-02-28T06:52:20;14.45;;;7.05;;
37945;SDS011;23769;52.478;13.448;2023-02-28T06:54:47;13.65;;;6.70;;
37945;SDS011;23769;52.478;13.448;2023-02-28T06:57:24;19.95;;;6.97;;
37945;SDS011;23769;52.478;13.448;2023-02-28T06:59:52;13.75;;;6.65;;
37945;SDS011;23769;52.478;13.448;2023-02-28T07:02:19;15.90;;;7.05;;
37945;SDS011;23769;52.478;13.448;2023-02-28T07:04:46;12.50;;;6.97;;
37945;SDS011;23769;52.478;13.448;2023-02-28T07:07:14;13.75;;;7.20;;
37945;SDS011;23769;52.478;13.448;2023-02-28T07:09:42;13.18;;;6.88;;
37945;SDS011;23769;52.478;13.448;2023-02-28T07:12:09;15.20;;;6.10;;
37945;SDS011;23769;52.478;13.448;2023-02-28T07:14:36;13.43;;;6.45;;
37945;SDS011;23769;52.478;13.448;2023-02-28T07:17:03;14.60;;;6.10;;
37945;SDS011;23769;52.478;13.448;2023-02-28T07:19:31;13.10;;;6.28;;
37945;SDS011;23769;52.478;13.448;2023-02-28T07:21:58;11.20;;;6.00;;
37945;SDS011;23769;52.478;13.448;2023-02-28T07:24:27;12.75;;;6.22;;
37945;SDS011;23769;52.478;13.448;2023-02-28T07:26:55;11.07;;;5.45;;
37945;SDS011;23769;52.478;13.448;2023-02-28T07:29:22;12.05;;;5.43;;
37945;SDS011;23769;52.478;13.448;2023-02-28T07:31:49;12.68;;;5.85;;
37945;SDS011;23769;52.478;13.448;2023-02-28T07:34:18;13.38;;;6.20;;
37945;SDS011;23769;52.478;13.448;2023-02-28T07:36:45;14.05;;;6.43;;
37945;SDS011;23769;52.478;13.448;2023-02-28T07:39:12;16.38;;;6.25;;
37945;SDS011;23769;52.478;13.448;2023-02-28T07:41:41;11.18;;;5.35;;
37945;SDS011;23769;52.478;13.448;2023-02-28T07:44:09;23.20;;;10.55;;
37945;SDS011;23769;52.478;13.448;2023-02-28T07:46:36;13.18;;;6.07;;
37945;SDS011;23769;52.478;13.448;2023-02-28T07:49:04;11.80;;;5.72;;
37945;SDS011;23769;52.478;13.448;2023-02-28T07:51:31;16.85;;;6.93;;
37945;SDS011;23769;52.478;13.448;2023-02-28T07:53:59;17.27;;;6.00;;
37945;SDS011;23769;52.478;13.448;2023-02-28T07:56:26;14.43;;;6.03;;
37945;SDS011;23769;52.478;13.448;2023-02-28T07:58:54;12.77;;;5.47;;
37945;SDS011;23769;52.478;13.448;2023-02-28T08:01:22;12.32;;;5.35;;
37945;SDS011;23769;52.478;13.448;2023-02-28T08:03:49;13.52;;;5.85;;
37945;SDS011;23769;52.478;13.448;2023-02-28T08:06:18;10.93;;;5.60;;
37945;SDS011;23769;52.478;13.448;2023-02-28T08:08:45;14.85;;;6.00;;
37945;SDS011;23769;52.478;13.448;2023-02-28T08:11:12;13.98;;;5.70;;
37945;SDS011;23769;52.478;13.448;2023-02-28T08:13:40;9.20;;;5.15;;
37945;SDS011;23769;52.478;13.448;2023-02-28T08:16:10;10.18;;;4.85;;
37945;SDS011;23769;52.478;13.448;2023-02-28T08:18:39;11.82;;;5.97;;
37945;SDS011;23769;52.478;13.448;2023-02-28T08:21:06;15.98;;;5.47;;
37945;SDS011;23769;52.478;13.448;2023-02-28T08:23:34;9.52;;;5.05;;
37945;SDS011;23769;52.478;13.448;2023-02-28T08:26:01;8.48;;;3.42;;
37945;SDS011;23769;52.478;13.448;2023-02-28T08:28:29;10.48;;;3.80;;
37945;SDS011;23769;52.478;13.448;2023-02-28T08:30:56;8.00;;;3.33;;
37945;SDS011;23769;52.478;13.448;2023-02-28T08:33:25;7.65;;;3.55;;
37945;SDS011;23769;52.478;13.448;2023-02-28T08:35:52;8.93;;;3.97;;
37945;SDS011;23769;52.478;13.448;2023-02-28T08:38:20;8.52;;;3.70;;
37945;SDS011;23769;52.478;13.448;2023-02-28T08:40:47;12.93;;;4.35;;
37945;SDS011;23769;52.478;13.448;2023-02-28T08:43:15;10.68;;;3.60;;
37945;SDS011;23769;52.478;13.448;2023-02-28T08:45:42;8.95;;;3.35;;
37945;SDS011;23769;52.478;13.448;2023-02-28T08:48:09;8.20;;;2.55;;
37945;SDS011;23769;52.478;13.448;2023-02-28T08:50:37;8.35;;;2.95;;
37945;SDS011;23769;52.478;13.448;2023-02-28T08:53:05;6.65;;;2.78;;
37945;SDS011;23769;52.478;13.448;2023-02-28T08:55:32;8.88;;;3.70;;
37945;SDS011;23769;52.478;13.448;2023-02-28T08:57:59;4.85;;;2.88;;
37945;SDS011;23769;52.478;13.448;2023-02-28T09:00:27;5.93;;;2.78;;
37945;SDS011;23769;52.478;13.448;2023-02-28T09:02:54;6.53;;;2.97;;
37945;SDS011;23769;52.478;13.448;2023-02-28T09:05:21;8.52;;;3.40;;
37945;SDS011;23769;52.478;13.448;2023-02-28T09:07:50;6.68;;;3.30;;
37945;SDS011;23769;52.478;13.448;2023-02-28T09:10:17;7.32;;;3.55;;
37945;SDS011;23769;52.478;13.448;2023-02-28T09:12:45;7.60;;;3.25;;
37945;SDS011;23769;52.478;13.448;2023-02-28T09:15:12;6.63;;;2.80;;
37945;SDS011;23769;52.478;13.448;2023-02-28T09:17:39;4.85;;;2.33;;
37945;SDS011;23769;52.478;13.448;2023-02-28T09:20:07;5.95;;;2.28;;
37945;SDS011;23769;52.478;13.448;2023-02-28T09:22:34;2.67;;;1.23;;
37945;SDS011;23769;52.478;13.448;2023-02-28T09:25:03;4.63;;;2.40;;
37945;SDS011;23769;52.478;13.448;2023-02-28T09:27:30;4.68;;;1.65;;
37945;SDS011;23769;52.478;13.448;2023-02-28T09:29:57;3.60;;;1.08;;
37945;SDS011;23769;52.478;13.448;2023-02-28T09:32:25;2.50;;;1.48;;
37945;SDS011;23769;52.478;13.448;2023-02-28T09:34:52;3.33;;;1.40;;
37945;SDS011;23769;52.478;13.448;2023-02-28T09:37:19;5.40;;;1.98;;
37945;SDS011;23769;52.478;13.448;2023-02-28T09:39:46;4.03;;;1.80;;
37945;SDS011;23769;52.478;13.448;2023-02-28T09:42:25;4.15;;;1.40;;
37945;SDS011;23769;52.478;13.448;2023-02-28T09:44:56;2.97;;;1.60;;
37945;SDS011;23769;52.478;13.448;2023-02-28T09:47:27;4.18;;;1.85;;
37945;SDS011;23769;52.478;13.448;2023-02-28T09:49:58;4.53;;;2.13;;
37945;SDS011;23769;52.478;13.448;2023-02-28T09:52:29;2.47;;;1.38;;
37945;SDS011;23769;52.478;13.448;2023-02-28T09:54:59;4.13;;;1.70;;
37945;SDS011;23769;52.478;13.448;2023-02-28T09:57:29;2.85;;;1.35;;
37945;SDS011;23769;52.478;13.448;2023-02-28T10:00:02;8.05;;;2.05;;
37945;SDS011;23769;52.478;13.448;2023-02-28T10:02:38;9.52;;;2.30;;
37945;SDS011;23769;52.478;13.448;2023-02-28T10:05:10;5.55;;;2.22;;
37945;SDS011;23769;52.478;13.448;2023-02-28T10:07:47;5.30;;;1.70;;
37945;SDS011;23769;52.478;13.448;2023-02-28T10:10:21;12.27;;;2.60;;
37945;SDS011;23769;52.478;13.448;2023-02-28T10:12:51;4.20;;;1.55;;
37945;SDS011;23769;52.478;13.448;2023-02-28T10:15:19;6.30;;;1.60;;
37945;SDS011;23769;52.478;13.448;2023-02-28T10:17:48;6.43;;;2.13;;
37945;SDS011;23769;52.478;13.448;2023-02-28T10:20:19;4.80;;;1.73;;
37945;SDS011;23769;52.478;13.448;2023-02-28T10:22:50;6.43;;;2.15;;
37945;SDS011;23769;52.478;13.448;2023-02-28T10:25:19;5.53;;;2.08;;
37945;SDS011;23769;52.478;13.448;2023-02-28T10:27:48;5.25;;;1.77;;
37945;SDS011;23769;52.478;13.448;2023-02-28T10:30:17;7.55;;;1.92;;
37945;SDS011;23769;52.478;13.448;2023-02-28T10:32:47;4.15;;;1.80;;
37945;SDS011;23769;52.478;13.448;2023-02-28T10:35:16;4.70;;;2.25;;
37945;SDS011;23769;52.478;13.448;2023-02-28T10:37:44;3.75;;;1.88;;
37945;SDS011;23769;52.478;13.448;2023-02-28T10:40:24;5.57;;;1.60;;
37945;SDS011;23769;52.478;13.448;2023-02-28T10:42:54;4.45;;;1.85;;
37945;SDS011;23769;52.478;13.448;2023-02-28T10:45:23;3.13;;;1.83;;
37945;SDS011;23769;52.478;13.448;2023-02-28T10:47:52;3.15;;;1.48;;
37945;SDS011;23769;52.478;13.448;2023-02-28T10:50:27;5.13;;;1.63;;
37945;SDS011;23769;52.478;13.448;2023-02-28T10:52:55;8.10;;;1.58;;
37945;SDS011;23769;52.478;13.448;2023-02-28T10:55:31;3.42;;;1.83;;
37945;SDS011;23769;52.478;13.448;2023-02-28T10:57:59;4.80;;;1.92;;
37945;SDS011;23769;52.478;13.448;2023-02-28T11:00:32;5.30;;;2.17;;
37945;SDS011;23769;52.478;13.448;2023-02-28T11:02:59;3.65;;;1.70;;
37945;SDS011;23769;52.478;13.448;2023-02-28T11:05:27;4.20;;;1.83;;
37945;SDS011;23769;52.478;13.448;2023-02-28T11:07:55;8.52;;;2.03;;
37945;SDS011;23769;52.478;13.448;2023-02-28T11:10:24;4.70;;;2.05;;
37945;SDS011;23769;52.478;13.448;2023-02-28T11:12:54;11.88;;;3.28;;
37945;SDS011;23769;52.478;13.448;2023-02-28T11:15:23;6.05;;;2.20;;
37945;SDS011;23769;52.478;13.448;2023-02-28T11:17:55;4.55;;;2.33;;
37945;SDS011;23769;52.478;13.448;2023-02-28T11:20:23;7.30;;;2.10;;
37945;SDS011;23769;52.478;13.448;2023-02-28T11:22:51;4.03;;;2.08;;
37945;SDS011;23769;52.478;13.448;2023-02-28T11:25:21;8.35;;;2.70;;
37945;SDS011;23769;52.478;13.448;2023-02-28T11:27:50;6.78;;;2.50;;
37945;SDS011;23769;52.478;13.448;2023-02-28T11:33:22;6.15;;;2.03;;
37945;SDS011;23769;52.478;13.448;2023-02-28T11:35:49;5.32;;;2.35;;
37945;SDS011;23769;52.478;13.448;2023-02-28T11:38:17;2.95;;;1.45;;
37945;SDS011;23769;52.478;13.448;2023-02-28T11:40:46;4.15;;;2.13;;
37945;SDS011;23769;52.478;13.448;2023-02-28T11:43:22;16.13;;;7.32;;
37945;SDS011;23769;52.478;13.448;2023-02-28T11:45:54;6.68;;;3.47;;
37945;SDS011;23769;52.478;13.448;2023-02-28T11:48:25;8.40;;;3.45;;
37945;SDS011;23769;52.478;13.448;2023-02-28T11:50:56;4.78;;;2.20;;
37945;SDS011;23769;52.478;13.448;2023-02-28T11:53:30;6.13;;;2.40;;
37945;SDS011;23769;52.478;13.448;2023-02-28T11:56:03;3.83;;;2.20;;
37945;SDS011;23769;52.478;13.448;2023-02-28T11:58:38;3.13;;;1.73;;
37945;SDS011;23769;52.478;13.448;2023-02-28T12:01:19;3.22;;;1.85;;
37945;SDS011;23769;52.478;13.448;2023-02-28T12:03:55;4.40;;;2.20;;
37945;SDS011;23769;52.478;13.448;2023-02-28T12:06:24;4.88;;;2.70;;
37945;SDS011;23769;52.478;13.448;2023-02-28T12:09:00;6.40;;;2.50;;
37945;SDS011;23769;52.478;13.448;2023-02-28T12:11:31;6.22;;;2.85;;
37945;SDS011;23769;52.478;13.448;2023-02-28T12:14:19;6.38;;;2.78;;
37945;SDS011;23769;52.478;13.448;2023-02-28T12:16:53;8.82;;;3.92;;
37945;SDS011;23769;52.478;13.448;2023-02-28T12:19:23;5.47;;;2.90;;
37945;SDS011;23769;52.478;13.448;2023-02-28T12:21:58;7.93;;;2.60;;
37945;SDS011;23769;52.478;13.448;2023-02-28T12:27:10;6.85;;;2.65;;
37945;SDS011;23769;52.478;13.448;2023-02-28T12:29:40;6.72;;;2.38;;
37945;SDS011;23769;52.478;13.448;2023-02-28T12:32:11;8.00;;;3.05;;
37945;SDS011;23769;52.478;13.448;2023-02-28T12:34:42;4.18;;;2.30;;
37945;SDS011;23769;52.478;13.448;2023-02-28T12:37:13;10.48;;;3.10;;
37945;SDS011;23769;52.478;13.448;2023-02-28T12:39:43;4.20;;;2.03;;
37945;SDS011;23769;52.478;13.448;2023-02-28T12:42:11;4.85;;;2.53;;
37945;SDS011;23769;52.478;13.448;2023-02-28T12:44:40;6.20;;;2.63;;
37945;SDS011;23769;52.478;13.448;2023-02-28T12:47:11;3.67;;;1.85;;
37945;SDS011;23769;52.478;13.448;2023-02-28T12:49:42;4.30;;;1.83;;
37945;SDS011;23769;52.478;13.448;2023-02-28T12:52:12;5.47;;;2.00;;
37945;SDS011;23769;52.478;13.448;2023-02-28T12:54:44;10.02;;;3.05;;
37945;SDS011;23769;52.478;13.448;2023-02-28T12:57:16;7.07;;;2.30;;
37945;SDS011;23769;52.478;13.448;2023-02-28T12:59:46;4.90;;;2.75;;
37945;SDS011;23769;52.478;13.448;2023-02-28T13:05:18;6.47;;;2.38;;
37945;SDS011;23769;52.478;13.448;2023-02-28T13:07:56;5.45;;;2.45;;
37945;SDS011;23769;52.478;13.448;2023-02-28T13:10:37;10.23;;;4.10;;
37945;SDS011;23769;52.478;13.448;2023-02-28T13:13:05;3.97;;;2.10;;
37945;SDS011;23769;52.478;13.448;2023-02-28T13:15:32;4.95;;;2.30;;
37945;SDS011;23769;52.478;13.448;2023-02-28T13:18:03;5.63;;;2.33;;
37945;SDS011;23769;52.478;13.448;2023-02-28T13:20:33;4.10;;;2.10;;
37945;SDS011;23769;52.478;13.448;2023-02-28T13:23:01;6.70;;;2.70;;
37945;SDS011;23769;52.478;13.448;2023-02-28T13:31:08;7.80;;;2.60;;
37945;SDS011;23769;52.478;13.448;2023-02-28T13:33:36;4.80;;;2.13;;
37945;SDS011;23769;52.478;13.448;2023-02-28T13:38:52;4.07;;;2.55;;
37945;SDS011;23769;52.478;13.448;2023-02-28T13:44:08;4.28;;;2.47;;
37945;SDS011;23769;52.478;13.448;2023-02-28T13:46:38;7.78;;;3.50;;
37945;SDS011;23769;52.478;13.448;2023-02-28T13:49:27;7.47;;;3.75;;
37945;SDS011;23769;52.478;13.448;2023-02-28T13:52:02;6.18;;;2.67;;
37945;SDS011;23769;52.478;13.448;2023-02-28T13:54:40;6.77;;;2.10;;
37945;SDS011;23769;52.478;13.448;2023-02-28T13:57:18;5.43;;;2.65;;
37945;SDS011;23769;52.478;13.448;2023-02-28T13:59:50;7.30;;;3.03;;
37945;SDS011;23769;52.478;13.448;2023-02-28T14:05:06;5.43;;;2.90;;
37945;SDS011;23769;52.478;13.448;2023-02-28T14:07:41;7.32;;;2.92;;
37945;SDS011;23769;52.478;13.448;2023-02-28T14:10:15;7.35;;;3.00;;
37945;SDS011;23769;52.478;13.448;2023-02-28T14:12:52;4.47;;;2.42;;
37945;SDS011;23769;52.478;13.448;2023-02-28T14:18:16;8.27;;;2.78;;
37945;SDS011;23769;52.478;13.448;2023-02-28T14:20:45;18.02;;;7.32;;
37945;SDS011;23769;52.478;13.448;2023-02-28T14:23:15;10.02;;;3.67;;
37945;SDS011;23769;52.478;13.448;2023-02-28T14:25:47;7.57;;;2.72;;
37945;SDS011;23769;52.478;13.448;2023-02-28T14:28:17;8.85;;;2.40;;
37945;SDS011;23769;52.478;13.448;2023-02-28T14:30:56;7.10;;;3.08;;
37945;SDS011;23769;52.478;13.448;2023-02-28T14:33:27;4.85;;;2.60;;
37945;SDS011;23769;52.478;13.448;2023-02-28T14:36:03;7.38;;;2.90;;
37945;SDS011;23769;52.478;13.448;2023-02-28T14:38:32;8.40;;;3.10;;
37945;SDS011;23769;52.478;13.448;2023-02-28T14:41:00;6.03;;;3.05;;
37945;SDS011;23769;52.478;13.448;2023-02-28T14:43:31;7.65;;;4.10;;
37945;SDS011;23769;52.478;13.448;2023-02-28T14:45:59;5.97;;;2.97;;
37945;SDS011;23769;52.478;13.448;2023-02-28T14:48:27;6.22;;;2.60;;
37945;SDS011;23769;52.478;13.448;2023-02-28T14:50:55;6.93;;;3.08;;
37945;SDS011;23769;52.478;13.448;2023-02-28T14:53:25;5.93;;;2.60;;
37945;SDS011;23769;52.478;13.448;2023-02-28T14:55:52;6.28;;;2.70;;
37945;SDS011;23769;52.478;13.448;2023-02-28T14:58:21;7.70;;;2.40;;
37945;SDS011;23769;52.478;13.448;2023-02-28T15:00:50;9.52;;;3.20;;
37945;SDS011;23769;52.478;13.448;2023-02-28T15:03:20;5.50;;;3.03;;
37945;SDS011;23769;52.478;13.448;2023-02-28T15:05:51;5.97;;;3.15;;
37945;SDS011;23769;52.478;13.448;2023-02-28T15:08:18;5.20;;;3.03;;
37945;SDS011;23769;52.478;13.448;2023-02-28T15:10:52;6.63;;;3.35;;
37945;SDS011;23769;52.478;13.448;2023-02-28T15:13:20;7.15;;;3.33;;
37945;SDS011;23769;52.478;13.448;2023-02-28T15:15:49;9.35;;;3.42;;
37945;SDS011;23769;52.478;13.448;2023-02-28T15:18:21;6.82;;;3.20;;
37945;SDS011;23769;52.478;13.448;2023-02-28T15:20:50;6.30;;;3.13;;
37945;SDS011;23769;52.478;13.448;2023-02-28T15:23:17;4.90;;;2.78;;